Debrecen, Magyarország

2017 Június 24 03:41 PM (CEST időzóna) (GMT +0200)
Debrecen | | Change Station

Elev 390 ft 47.53 °N, 21.67 °E | Updated 2 minutes ago

Derült
Derült
84.7 °F
Hőérzet 84 °F
N
6.2
Szél: változó Szél: from keleti
Gusts 19.9 mph

Ma
High -- | Low -- °F
--% Csapadék valószínű
Tegnapi
High -- | Low -- °F
Precip. -- hvlyk.
Légnyomás 29.95 hvlyk.
Látótávolság -9999.0 mérföld
Felhők
Hőskála 84 °F
Harmatpont 58 °F
Páratartalom 40%
Rainfall 0.00 hvlyk.
Hóréteg vastagsága Not available.
4:35 AM 8:35 PM
Újhold, 0% visible
METAR LHDC 241315Z 27008KT CAVOK 29/13 Q1014 NOSIG
Légnyomás 29.95 hvlyk.
Látótávolság -9999.0 mérföld
Felhők
Hőskála 84 °F
Harmatpont 58 °F
Páratartalom 40%
Rainfall 0.00 hvlyk.
Hóréteg vastagsága Not available.
4:35 AM 8:35 PM
Újhold, 0% visible
METAR LHDC 241315Z 27008KT CAVOK 29/13 Q1014 NOSIG

Get Severe Weather Alerts

Thanks for signing up!

Be on the lookout for a verification email in your inbox.

You'll start receiving the daily forecast at 6 AM.

×

10-Day Weather Forecast

×

Almanac

Csillagászat

Jun. 24, 2017 Kel Nyugszik
Tényleges idő
Civil alkony
Tengerészeti alkony
Csillagászati alkony
Hold
Látható fény időtartama
A nap hossza
Tomorrow will be .
, % of the Moon is Illuminated

Today's Extremes

Country Highs Country Lows

Community

Category 6

Welcome to Category 6. This is the collective home for Weather Underground's featured writeups by Dr. Jeff Masters (right), Bob Henson (left), Chris Burt, and other regular contributors.

Nearby

A levegő minősége

  A levegő minősége AQ Index Szennyezőanyag
Not available.

Hóréteg vastagsága

Station Depth Elevation

Earthquake Activity

város Distance Mag. Time & Date
Minimum magnitude displayed is 2.5.

Coastal Water Temperatures

Hely Hőmérséklet

Stations

Közeli meteorológiai állomások

Station Location Hőm. Hőérzet Harmatpont Páratartalom Szél: Precip. Elev Frissítve Type